Time;durP1;ratioP1;P1;durP2;ratioP2;P2;SDS_P1;SDS_P2;PMS_P1;PMS_P2;Temp;Humidity;BMP_temperature;BMP_pressure;BME280_temperature;BME280_humidity;BME280_pressure;Samples;Min_cycle;Max_cycle;Signal;HPM_P1;HPM_P2
2022/08/01 00:01:21;;;;;;;;;16.75;15.50;;;;;28.80;49.64;100350.75;146609;669;46020;-78
2022/08/01 00:04:15;;;;;;;;;14.75;14.75;;;;;28.84;50.00;100358.59;146607;578;46017;-81
2022/08/01 00:07:10;;;;;;;;;16.50;15.25;;;;;28.87;50.39;100358.50;146608;595;46020;-76
2022/08/01 00:10:24;;;;;;;;;15.50;15.00;;;;;28.90;50.84;100357.56;146608;621;46922;-77
2022/08/01 00:13:16;;;;;;;;;13.50;12.50;;;;;28.93;50.22;100354.78;146612;576;45020;-81
2022/08/01 00:16:17;;;;;;;;;15.25;15.00;;;;;28.64;49.98;100297.00;146603;597;47014;-80
2022/08/01 00:19:18;;;;;;;;;13.50;12.50;;;;;28.95;50.20;100345.81;146607;570;46021;-78
2022/08/01 00:22:10;;;;;;;;;16.50;16.50;;;;;28.94;50.58;100348.53;146606;592;46921;-80
2022/08/01 00:25:09;;;;;;;;;12.50;12.50;;;;;28.89;51.00;100356.69;146610;641;46021;-82
2022/08/01 00:28:02;;;;;;;;;17.00;15.75;;;;;28.85;51.02;100355.03;146607;604;46014;-80
2022/08/01 00:31:00;;;;;;;;;14.00;13.25;;;;;28.88;50.45;100356.72;146607;632;46020;-80
2022/08/01 00:34:03;;;;;;;;;19.75;16.75;;;;;28.83;49.63;100345.31;146604;630;46017;-81
2022/08/01 00:37:10;;;;;;;;;14.50;13.50;;;;;28.83;50.25;100348.00;146610;626;46012;-79
2022/08/01 00:40:13;;;;;;;;;17.75;16.00;;;;;28.77;51.19;100346.38;146606;693;46017;-78
2022/08/01 00:43:14;;;;;;;;;14.75;14.75;;;;;28.80;52.97;100356.09;146608;624;47020;-78
2022/08/01 00:46:19;;;;;;;;;18.00;16.00;;;;;28.78;52.61;100349.03;146608;592;46017;-74
2022/08/01 00:49:11;;;;;;;;;14.75;14.00;;;;;28.79;51.92;100349.88;146610;573;46010;-88
2022/08/01 00:52:23;;;;;;;;;14.25;13.25;;;;;28.78;51.58;100348.13;146607;628;46014;-79
2022/08/01 00:55:23;;;;;;;;;16.50;16.50;;;;;28.80;52.01;100350.75;146609;569;46021;-78
2022/08/01 00:58:19;;;;;;;;;16.00;15.00;;;;;28.78;52.30;100353.44;146608;609;46016;-79
2022/08/01 01:01:22;;;;;;;;;18.00;16.50;;;;;28.80;51.85;100346.28;146608;566;46020;-78
2022/08/01 01:04:27;;;;;;;;;15.75;15.75;;;;;28.85;52.13;100356.81;146607;590;46016;-78
2022/08/01 01:08:10;;;;;;;;;15.50;12.50;;;;;28.27;53.73;100271.37;146609;587;46010;-81
2022/08/01 01:11:20;;;;;;;;;15.00;14.25;;;;;28.72;53.43;100350.97;146607;620;46016;-79
2022/08/01 01:14:44;;;;;;;;;16.75;15.00;;;;;28.71;52.73;100363.44;146609;569;46020;-82
2022/08/01 01:18:21;;;;;;;;;14.00;14.00;;;;;28.59;50.83;100326.44;146605;581;46017;-75
2022/08/01 01:22:04;;;;;;;;;;;;;;;;;;;;;
2022/08/01 01:25:36;;;;;;;;;14.50;14.25;;;;;28.73;53.88;100342.06;146620;573;46013;-79
2022/08/01 01:29:10;;;;;;;;;13.00;12.50;;;;;28.65;54.65;100352.94;146623;680;46012;-76
2022/08/01 01:32:37;;;;;;;;;14.25;13.50;;;;;28.55;52.16;100340.81;146620;581;46013;-76
2022/08/01 01:35:34;;;;;;;;;12.25;12.25;;;;;28.56;48.54;100345.22;146623;624;46012;-74
2022/08/01 01:38:31;;;;;;;;;13.25;13.25;;;;;28.57;45.02;100340.75;146622;588;45032;-76
2022/08/01 01:41:35;;;;;;;;;12.50;12.50;;;;;28.68;43.83;100331.50;146624;568;45020;-74
2022/08/01 01:44:30;;;;;;;;;13.50;11.25;;;;;28.72;42.00;100325.19;146620;569;46012;-74
2022/08/01 01:47:39;;;;;;;;;;;;;;;;;;;;;
2022/08/01 01:50:48;;;;;;;;;17.00;15.50;;;;;28.85;42.89;100349.72;146623;634;45014;-75
2022/08/01 01:53:49;;;;;;;;;14.75;13.50;;;;;28.90;43.81;100347.75;146623;696;46010;-71
2022/08/01 01:56:50;;;;;;;;;14.00;13.25;;;;;28.42;42.70;100262.94;146619;641;46016;-72
2022/08/01 01:59:52;;;;;;;;;13.50;13.50;;;;;28.89;46.71;100356.69;146623;611;46020;-74
2022/08/01 02:02:47;;;;;;;;;16.25;15.75;;;;;28.91;52.92;100364.62;146616;611;46016;-76
2022/08/01 02:05:47;;;;;;;;;15.00;15.00;;;;;28.85;57.44;100364.81;146622;578;46020;-74
2022/08/01 02:09:12;;;;;;;;;16.75;16.25;;;;;28.71;55.68;100367.91;146618;604;46016;-72
2022/08/01 02:12:11;;;;;;;;;16.25;16.25;;;;;28.58;61.71;100372.72;146622;577;46020;-77
2022/08/01 02:15:07;;;;;;;;;17.00;16.75;;;;;28.52;56.97;100373.78;146618;596;46016;-82
2022/08/01 02:18:12;;;;;;;;;1.00;0.00;;;;;28.52;56.44;100365.75;146622;565;46010;-82
2022/08/01 02:21:19;;;;;;;;;21.25;21.25;;;;;28.56;57.48;100374.56;146621;579;45042;-80
2022/08/01 02:24:45;;;;;;;;;18.25;16.00;;;;;28.52;58.82;100387.09;146623;617;45021;-82
2022/08/01 02:28:00;;;;;;;;;16.25;15.25;;;;;28.43;52.49;100379.34;146620;662;46016;-80
2022/08/01 02:30:57;;;;;;;;;14.75;14.75;;;;;28.45;58.44;100395.34;146621;573;46020;-78
2022/08/01 02:34:09;;;;;;;;;14.50;13.75;;;;;28.44;56.88;100377.56;146620;724;46016;-77
2022/08/01 02:37:11;;;;;;;;;17.25;15.50;;;;;28.47;56.23;100377.47;146624;681;45020;-75
2022/08/01 02:40:04;;;;;;;;;14.00;13.50;;;;;28.46;59.20;100371.28;146620;599;45036;-79
2022/08/01 02:43:13;;;;;;;;;15.25;14.75;;;;;28.49;57.89;100383.66;146622;611;46020;-75
2022/08/01 02:46:11;;;;;;;;;18.25;15.25;;;;;28.49;56.92;100394.31;146620;616;46016;-74
2022/08/01 02:49:19;;;;;;;;;17.00;16.75;;;;;28.51;55.38;100406.69;146620;569;46010;-75
2022/08/01 02:52:19;;;;;;;;;16.00;15.25;;;;;28.52;56.73;100403.09;146623;564;45036;-77
2022/08/01 02:55:16;;;;;;;;;19.50;16.50;;;;;28.48;57.17;100401.44;146622;576;46010;-77
2022/08/01 02:58:17;;;;;;;;;17.50;16.00;;;;;28.49;57.15;100413.87;146619;593;46016;-77
2022/08/01 03:01:32;;;;;;;;;15.75;14.75;;;;;28.46;55.00;100416.63;146623;583;45027;-78
2022/08/01 03:04:37;;;;;;;;;17.50;16.75;;;;;28.48;55.95;100425.47;146618;608;46025;-76
2022/08/01 03:07:53;;;;;;;;;;;;;;;;;;;;;
2022/08/01 03:11:00;;;;;;;;;14.25;12.50;;;;;28.47;56.60;100439.69;146623;575;45030;-81
2022/08/01 03:14:03;;;;;;;;;15.25;15.25;;;;;28.44;56.17;100426.47;146621;636;46020;-80
2022/08/01 03:17:25;;;;;;;;;17.75;15.75;;;;;28.45;57.35;100438.88;146619;599;46017;-76
2022/08/01 03:20:41;;;;;;;;;16.50;16.00;;;;;28.34;56.41;100432.91;146622;569;45020;-75
2022/08/01 03:23:40;;;;;;;;;14.50;14.25;;;;;28.27;56.70;100444.66;146607;603;46014;-75
2022/08/01 03:26:46;;;;;;;;;18.00;17.50;;;;;27.12;56.37;100255.69;146601;575;46917;-75
2022/08/01 03:29:42;;;;;;;;;12.75;12.75;;;;;28.20;57.08;100451.06;146606;625;47012;-79
2022/08/01 03:32:37;;;;;;;;;17.75;15.25;;;;;28.19;57.26;100442.19;146608;595;46021;-77
2022/08/01 03:35:49;;;;;;;;;19.25;17.75;;;;;28.20;55.92;100445.75;146605;618;46016;-78
2022/08/01 03:38:51;;;;;;;;;14.75;14.50;;;;;28.21;56.25;100444.81;146606;564;46021;-76
2022/08/01 03:41:59;;;;;;;;;;;;;;;;;;;;;
2022/08/01 03:45:17;;;;;;;;;18.25;17.25;;;;;28.23;56.87;100433.22;146609;588;46020;-76
2022/08/01 03:48:43;;;;;;;;;19.75;17.75;;;;;28.22;56.73;100431.44;146604;578;47922;-78
2022/08/01 03:51:44;;;;;;;;;16.25;15.25;;;;;28.16;58.19;100430.72;146608;588;46010;-77
2022/08/01 03:55:08;;;;;;;;;17.00;16.00;;;;;27.56;55.75;100336.28;146607;606;46017;-78
2022/08/01 03:58:02;;;;;;;;;15.00;14.75;;;;;28.04;57.83;100426.59;146604;605;46020;-77
2022/08/01 04:00:55;;;;;;;;;18.75;18.00;;;;;28.11;57.95;100427.31;146607;599;46016;-76
2022/08/01 04:04:06;;;;;;;;;17.50;16.75;;;;;28.09;58.91;100428.22;146609;573;46020;-76
2022/08/01 04:07:03;;;;;;;;;14.75;14.25;;;;;28.01;58.95;100432.00;146606;583;46016;-75
2022/08/01 04:10:03;;;;;;;;;17.75;16.75;;;;;27.90;59.52;100434.06;146609;597;46021;-76
2022/08/01 04:13:08;;;;;;;;;18.75;18.00;;;;;27.80;59.16;100425.41;146606;581;46016;-78
2022/08/01 04:16:26;;;;;;;;;;;;;;;;;;;;;
2022/08/01 04:19:19;;;;;;;;;16.75;16.75;;;;;27.82;59.21;100436.91;146609;606;46012;-81
2022/08/01 04:22:15;;;;;;;;;18.75;17.50;;;;;27.94;60.22;100436.59;146608;627;46020;-85
2022/08/01 04:25:20;;;;;;;;;16.75;14.00;;;;;28.04;59.22;100434.59;146607;581;46017;-82
2022/08/01 04:28:19;;;;;;;;;18.00;17.50;;;;;28.14;60.16;100436.09;146609;595;46010;-78
2022/08/01 04:31:41;;;;;;;;;17.50;17.25;;;;;28.25;58.64;100444.69;146604;564;47012;-77
2022/08/01 04:34:48;;;;;;;;;18.00;17.00;;;;;27.84;58.01;100357.81;146610;609;46020;-74
2022/08/01 04:37:54;;;;;;;;;17.50;17.25;;;;;28.41;58.92;100447.88;146606;627;46921;-75
2022/08/01 04:40:54;;;;;;;;;14.75;14.50;;;;;28.52;58.78;100452.91;146606;566;47011;-73
2022/08/01 04:43:47;;;;;;;;;16.25;16.25;;;;;28.62;58.85;100448.19;146606;578;46016;-73
2022/08/01 04:46:43;;;;;;;;;17.00;15.50;;;;;28.70;57.36;100454.22;146608;701;46020;-76
2022/08/01 04:49:46;;;;;;;;;13.25;12.25;;;;;28.76;55.53;100456.72;146606;576;46016;-74
2022/08/01 04:52:42;;;;;;;;;16.00;16.00;;;;;28.33;56.50;100367.19;146609;590;46012;-73
2022/08/01 04:55:36;;;;;;;;;13.00;12.00;;;;;28.90;56.40;100457.16;146606;601;46030;-74
2022/08/01 04:58:39;;;;;;;;;19.00;16.25;;;;;28.95;54.06;100449.91;146606;618;46012;-77
2022/08/01 05:01:40;;;;;;;;;18.75;17.25;;;;;29.01;54.04;100456.91;146608;570;46013;-72
2022/08/01 05:04:41;;;;;;;;;18.75;18.25;;;;;29.08;53.21;100462.94;146610;576;46012;-76
2022/08/01 05:07:36;;;;;;;;;16.50;15.00;;;;;29.10;52.46;100455.78;146606;563;46016;-77
2022/08/01 05:10:34;;;;;;;;;18.75;18.00;;;;;29.11;51.70;100462.84;146609;564;46020;-78
2022/08/01 05:13:31;;;;;;;;;20.75;19.25;;;;;29.10;50.08;100456.66;146609;613;46012;-78
2022/08/01 05:16:25;;;;;;;;;17.75;15.50;;;;;29.09;49.30;100459.34;146610;589;46021;-74
2022/08/01 05:19:45;;;;;;;;;18.00;17.25;;;;;29.09;49.85;100460.22;146607;641;46016;-76
2022/08/01 05:22:46;;;;;;;;;16.25;15.75;;;;;29.13;49.23;100464.56;146608;609;46010;-74
2022/08/01 05:25:45;;;;;;;;;16.75;15.50;;;;;29.19;50.30;100463.47;146605;573;46016;-76
2022/08/01 05:28:38;;;;;;;;;18.50;18.25;;;;;29.27;49.51;100472.16;146608;566;46020;-75
2022/08/01 05:31:47;;;;;;;;;18.25;18.00;;;;;29.32;50.25;100472.91;146606;631;46015;-76
2022/08/01 05:34:44;;;;;;;;;22.25;20.25;;;;;29.36;50.12;100473.69;146609;572;46020;-77
2022/08/01 05:37:49;;;;;;;;;19.25;18.00;;;;;29.39;49.72;100479.78;146605;644;46016;-77
2022/08/01 05:41:01;;;;;;;;;16.25;15.00;;;;;29.43;50.64;100477.91;146611;578;46010;-77
2022/08/01 05:44:11;;;;;;;;;17.50;17.50;;;;;29.44;51.25;100479.66;146604;569;47016;-78
2022/08/01 05:47:04;;;;;;;;;16.25;15.25;;;;;29.43;51.80;100481.44;146609;610;46012;-72
2022/08/01 05:50:02;;;;;;;;;14.00;12.50;;;;;29.42;51.41;100482.38;146601;589;47014;-74
2022/08/01 05:52:55;;;;;;;;;19.00;17.25;;;;;29.42;51.27;100489.53;146609;569;46020;-80
2022/08/01 05:55:55;;;;;;;;;15.75;15.25;;;;;29.42;51.14;100479.69;146606;668;46016;-78
2022/08/01 05:58:47;;;;;;;;;17.25;16.50;;;;;29.42;51.67;100485.03;146609;570;46010;-76
2022/08/01 06:01:39;;;;;;;;;18.00;17.50;;;;;29.41;50.65;100488.66;146607;628;46012;-78
2022/08/01 06:04:35;;;;;;;;;15.00;15.00;;;;;29.44;51.10;100485.88;146607;642;46020;-75
2022/08/01 06:07:33;;;;;;;;;8.75;8.50;;;;;29.50;51.18;100489.28;146606;602;46016;-75
2022/08/01 06:10:42;;;;;;;;;16.00;15.00;;;;;29.53;51.13;100497.19;146610;594;46010;-79
2022/08/01 06:13:43;;;;;;;;;16.00;13.25;;;;;29.58;51.03;100501.47;146605;646;46921;-76
2022/08/01 06:16:45;;;;;;;;;18.00;15.50;;;;;29.63;51.01;100493.38;146611;573;45022;-75
2022/08/01 06:19:38;;;;;;;;;15.75;15.00;;;;;29.67;50.84;100500.34;146606;635;46016;-75
2022/08/01 06:22:35;;;;;;;;;16.25;16.00;;;;;29.74;50.86;100498.34;146609;615;46020;-74
2022/08/01 06:25:40;;;;;;;;;17.00;16.25;;;;;29.83;50.26;100506.97;146607;724;46014;-75
2022/08/01 06:28:33;;;;;;;;;18.25;17.00;;;;;29.92;49.96;100501.31;146609;613;46010;-74
2022/08/01 06:31:28;;;;;;;;;18.50;16.75;;;;;30.00;49.91;100501.09;146607;608;46921;-74
2022/08/01 06:34:29;;;;;;;;;17.75;16.00;;;;;30.07;49.48;100505.28;146608;598;46028;-77
2022/08/01 06:37:32;;;;;;;;;15.50;15.00;;;;;30.19;49.09;100506.69;146607;563;46035;-77
2022/08/01 06:40:36;;;;;;;;;15.00;14.00;;;;;30.30;49.03;100504.56;146611;642;46010;-77
2022/08/01 06:43:28;;;;;;;;;16.00;15.75;;;;;30.41;49.20;100492.62;146605;564;46038;-77
2022/08/01 06:46:21;;;;;;;;;18.75;18.00;;;;;30.53;48.59;100503.78;146607;649;46020;-73
2022/08/01 06:49:23;;;;;;;;;17.25;16.75;;;;;30.64;47.66;100497.16;146607;618;46012;-75
2022/08/01 06:52:19;;;;;;;;;16.50;16.50;;;;;30.73;48.10;100494.16;146609;592;46030;-77
2022/08/01 06:55:25;;;;;;;;;13.50;12.50;;;;;30.83;47.55;100500.97;146604;564;46017;-77
2022/08/01 06:58:17;;;;;;;;;17.75;17.75;;;;;30.87;47.75;100501.72;146608;576;46020;-73
2022/08/01 07:01:11;;;;;;;;;19.25;18.50;;;;;30.94;48.13;100503.28;146605;700;46017;-77
2022/08/01 07:04:18;;;;;;;;;19.50;17.25;;;;;31.00;46.90;100505.72;146608;569;46010;-76
2022/08/01 07:07:10;;;;;;;;;19.25;18.50;;;;;31.01;46.80;100499.41;146608;569;46016;-78
2022/08/01 07:10:14;;;;;;;;;19.50;16.25;;;;;31.02;47.24;100502.03;146610;651;46010;-76
2022/08/01 07:13:06;;;;;;;;;15.75;14.75;;;;;30.98;46.49;100500.41;146605;665;46016;-79
2022/08/01 07:16:16;;;;;;;;;18.25;17.75;;;;;30.93;46.88;100491.66;146606;570;46020;-74
2022/08/01 07:19:12;;;;;;;;;19.50;17.75;;;;;30.42;46.38;100414.13;146608;573;46012;-75
2022/08/01 07:22:13;;;;;;;;;21.00;19.25;;;;;30.45;47.54;100414.88;146609;571;46010;-73
2022/08/01 07:25:09;;;;;;;;;21.50;17.75;;;;;30.99;47.16;100495.91;146608;575;46012;-75
2022/08/01 07:28:05;;;;;;;;;17.50;17.25;;;;;31.09;46.95;100501.81;146607;601;46020;-76
2022/08/01 07:31:11;;;;;;;;;22.25;20.25;;;;;31.15;46.87;100513.16;146607;777;46017;-73
2022/08/01 07:34:06;;;;;;;;;20.00;19.25;;;;;31.24;46.29;100501.22;146609;596;46032;-75
2022/08/01 07:37:07;;;;;;;;;21.25;20.25;;;;;31.46;46.69;100498.63;146610;608;46012;-74
2022/08/01 07:40:03;;;;;;;;;17.50;17.00;;;;;31.74;46.27;100498.41;146609;571;46021;-74
2022/08/01 07:42:57;;;;;;;;;17.25;17.25;;;;;31.62;44.87;100427.44;146609;590;46012;-75
2022/08/01 07:46:09;;;;;;;;;19.25;19.25;;;;;32.27;44.87;100498.03;146609;645;46012;-75
2022/08/01 07:49:02;;;;;;;;;21.00;18.75;;;;;32.47;43.50;100494.56;146608;592;46014;-77
2022/08/01 07:52:03;;;;;;;;;19.50;18.25;;;;;32.67;43.77;100499.03;146611;613;46021;-75
2022/08/01 07:54:58;;;;;;;;;18.00;17.00;;;;;32.86;43.07;100501.78;146609;594;46012;-77
2022/08/01 07:57:56;;;;;;;;;18.75;17.75;;;;;32.88;43.05;100502.59;146607;580;46020;-75
2022/08/01 08:00:54;;;;;;;;;18.00;16.50;;;;;32.77;42.59;100502.19;146608;588;45017;-77
2022/08/01 08:03:48;;;;;;;;;19.25;18.50;;;;;32.71;43.37;100507.81;146609;565;46010;-76
2022/08/01 08:06:49;;;;;;;;;17.50;17.50;;;;;32.77;42.63;100502.19;146608;668;46012;-75
2022/08/01 08:09:45;;;;;;;;;18.50;18.00;;;;;32.87;42.22;100500.88;146608;602;46021;-77
2022/08/01 08:12:49;;;;;;;;;21.00;20.00;;;;;33.02;42.55;100496.62;146604;579;46921;-77
2022/08/01 08:15:53;;;;;;;;;19.50;18.00;;;;;33.25;41.94;100501.81;146610;582;46021;-77
2022/08/01 08:19:04;;;;;;;;;21.50;18.50;;;;;33.34;41.50;100496.00;146606;671;47014;-75
2022/08/01 08:21:59;;;;;;;;;17.25;17.00;;;;;33.37;41.13;100500.38;146608;588;46020;-75
2022/08/01 08:24:59;;;;;;;;;16.50;15.00;;;;;33.44;40.65;100500.97;146606;582;46016;-77
2022/08/01 08:27:57;;;;;;;;;19.50;16.75;;;;;33.55;40.30;100501.34;146608;612;46010;-75
2022/08/01 08:30:55;;;;;;;;;18.00;15.50;;;;;33.68;38.67;100509.72;146610;583;46013;-77
2022/08/01 08:33:59;;;;;;;;;17.75;17.50;;;;;33.67;37.50;100505.25;146609;563;46033;-75
2022/08/01 08:37:00;;;;;;;;;18.25;18.25;;;;;33.52;40.03;100499.69;146608;590;46015;-76
2022/08/01 08:40:06;;;;;;;;;18.75;18.25;;;;;33.27;39.54;100499.03;146608;655;46020;-76
2022/08/01 08:43:00;;;;;;;;;16.50;16.50;;;;;33.06;39.86;100503.62;146609;592;46012;-75
2022/08/01 08:45:58;;;;;;;;;17.00;17.00;;;;;32.96;40.76;100500.44;146606;613;46021;-77
2022/08/01 08:48:51;;;;;;;;;15.00;15.00;;;;;32.95;40.89;100509.44;146608;576;46012;-75
2022/08/01 08:51:56;;;;;;;;;18.50;18.50;;;;;33.07;41.87;100502.66;146609;578;46021;-78
2022/08/01 08:54:55;;;;;;;;;18.00;17.25;;;;;33.19;40.68;100498.56;146605;633;46921;-77
2022/08/01 08:57:48;;;;;;;;;18.00;17.00;;;;;33.20;40.25;100500.28;146610;610;46010;-78
2022/08/01 09:00:50;;;;;;;;;20.00;19.75;;;;;33.03;41.52;100509.13;146608;572;46922;-80
2022/08/01 09:03:54;;;;;;;;;19.25;19.00;;;;;32.90;42.82;100500.72;146608;578;46020;-79
2022/08/01 09:06:47;;;;;;;;;16.50;15.00;;;;;32.82;41.83;100492.13;146606;580;46017;-77
2022/08/01 09:09:48;;;;;;;;;19.25;18.00;;;;;32.84;42.03;100499.19;146610;604;46010;-77
2022/08/01 09:13:04;;;;;;;;;18.25;17.25;;;;;32.87;40.33;100503.53;146606;667;46016;-82
2022/08/01 09:16:01;;;;;;;;;17.50;15.75;;;;;32.83;40.44;100501.91;146609;580;46021;-79
2022/08/01 09:19:08;;;;;;;;;20.00;20.00;;;;;32.87;41.74;100501.72;146609;630;46012;-78
2022/08/01 09:22:06;;;;;;;;;17.50;16.50;;;;;33.09;42.23;100503.47;146610;627;46010;-81
2022/08/01 09:25:18;;;;;;;;;19.50;19.50;;;;;33.16;42.62;100494.19;146608;595;46012;-78
2022/08/01 09:28:13;;;;;;;;;16.75;15.25;;;;;33.26;41.99;100508.06;146605;574;46021;-82
2022/08/01 09:31:19;;;;;;;;;18.00;17.50;;;;;33.11;42.85;100499.75;146607;564;46016;-81
2022/08/01 09:34:12;;;;;;;;;19.50;17.25;;;;;32.94;43.13;100499.62;146611;598;46012;-77
2022/08/01 09:37:17;;;;;;;;;15.50;14.75;;;;;32.63;43.81;100503.69;146608;627;45017;-76
2022/08/01 09:40:23;;;;;;;;;19.25;17.50;;;;;32.35;43.32;100497.72;146608;607;46020;-77
2022/08/01 09:43:43;;;;;;;;;17.00;16.00;;;;;32.22;44.40;100492.03;146604;567;46016;-75
2022/08/01 09:46:36;;;;;;;;;17.50;16.50;;;;;32.27;43.52;100494.50;146610;671;46012;-75
2022/08/01 09:49:57;;;;;;;;;15.50;15.50;;;;;32.02;43.62;100452.59;146609;580;46012;-78
2022/08/01 09:53:00;;;;;;;;;21.25;19.50;;;;;32.17;43.28;100486.84;146609;694;46020;-77
2022/08/01 09:55:55;;;;;;;;;19.00;17.50;;;;;32.18;43.17;100493.97;146607;593;46012;-72
2022/08/01 09:59:21;;;;;;;;;15.75;15.00;;;;;31.68;42.67;100396.81;146608;578;46010;-75
2022/08/01 10:02:31;;;;;;;;;17.75;15.75;;;;;32.34;42.13;100482.59;146606;582;46016;-76
2022/08/01 10:05:47;;;;;;;;;17.50;17.50;;;;;32.60;43.41;100476.97;146608;569;46020;-75
2022/08/01 10:08:53;;;;;;;;;14.25;13.50;;;;;32.86;43.26;100477.63;146606;569;46016;-74
2022/08/01 10:12:05;;;;;;;;;19.50;17.00;;;;;33.13;42.00;100474.66;146608;610;46020;-77
2022/08/01 10:15:48;;;;;;;;;17.25;17.25;;;;;32.75;41.87;100399.37;146605;578;46012;-76
2022/08/01 10:19:04;;;;;;;;;15.75;15.75;;;;;33.10;41.35;100472.97;146610;663;46010;-75
2022/08/01 10:22:00;;;;;;;;;15.75;15.50;;;;;33.07;41.88;100460.56;146604;570;47922;-76
2022/08/01 10:25:17;;;;;;;;;15.75;14.75;;;;;32.61;42.62;100378.50;146607;605;46020;-77
2022/08/01 10:28:24;;;;;;;;;15.25;15.25;;;;;33.28;41.24;100461.38;146606;744;46016;-76
2022/08/01 10:31:25;;;;;;;;;18.00;16.25;;;;;33.49;39.77;100466.66;146608;583;46012;-75
2022/08/01 10:34:28;;;;;;;;;15.25;14.75;;;;;33.63;40.97;100461.53;146606;684;46016;-77
2022/08/01 10:37:25;;;;;;;;;15.00;14.75;;;;;33.66;39.60;100463.19;146608;617;46021;-76
2022/08/01 10:40:38;;;;;;;;;14.50;12.75;;;;;33.69;39.35;100457.66;146606;631;46016;-77
2022/08/01 10:43:38;;;;;;;;;13.75;13.75;;;;;33.79;38.22;100458.94;146610;599;46021;-76
2022/08/01 10:46:40;;;;;;;;;16.75;16.50;;;;;33.88;37.94;100457.63;146608;628;45016;-76
2022/08/01 10:50:09;;;;;;;;;16.50;15.25;;;;;33.42;39.91;100363.94;146609;575;46020;-75
2022/08/01 10:53:41;;;;;;;;;17.00;16.00;;;;;33.47;40.43;100364.59;146608;620;46016;-76
2022/08/01 10:57:06;;;;;;;;;;;;;;;;;;;;;
2022/08/01 11:00:04;;;;;;;;;15.00;15.00;;;;;34.01;40.42;100458.75;146607;588;46016;-77
2022/08/01 11:03:06;;;;;;;;;15.75;15.50;;;;;34.00;40.23;100459.69;146610;571;45020;-76
2022/08/01 11:06:11;;;;;;;;;15.75;14.50;;;;;33.42;40.35;100363.09;146607;564;46035;-76
2022/08/01 11:09:54;;;;;;;;;19.75;17.25;;;;;33.40;39.85;100362.28;146608;567;46020;-75
2022/08/01 11:12:54;;;;;;;;;15.25;14.50;;;;;33.82;40.28;100444.47;146606;624;46013;-76
2022/08/01 11:16:03;;;;;;;;;;;;;;;;;;;;;
2022/08/01 11:19:14;;;;;;;;;14.75;14.75;;;;;33.48;39.26;100438.03;146605;614;46920;-71
2022/08/01 11:22:20;;;;;;;;;16.25;15.50;;;;;33.45;40.08;100440.87;146611;572;46012;-76
2022/08/01 11:25:30;;;;;;;;;17.75;16.75;;;;;33.48;40.07;100446.97;146607;581;46016;-73
2022/08/01 11:28:31;;;;;;;;;13.25;12.25;;;;;33.49;38.89;100434.41;146609;616;46021;-75
2022/08/01 11:31:47;;;;;;;;;16.00;15.50;;;;;32.93;38.75;100339.44;146605;609;46921;-76
2022/08/01 11:35:02;;;;;;;;;16.25;16.25;;;;;33.44;39.99;100429.25;146607;625;46020;-73
2022/08/01 11:38:22;;;;;;;;;18.75;18.00;;;;;33.52;39.85;100423.53;146607;670;46012;-74
2022/08/01 11:41:25;;;;;;;;;16.00;15.25;;;;;33.64;37.34;100427.44;146610;566;46012;-76
2022/08/01 11:44:27;;;;;;;;;17.25;16.00;;;;;33.73;38.97;100424.28;146610;665;45016;-74
2022/08/01 11:47:57;;;;;;;;;13.75;12.75;;;;;33.26;39.17;100328.03;146609;595;46010;-75
2022/08/01 11:51:08;;;;;;;;;13.75;13.75;;;;;33.83;38.77;100413.94;146607;592;46016;-72
2022/08/01 11:54:10;;;;;;;;;15.75;15.25;;;;;33.86;38.62;100419.16;146610;586;46011;-73
2022/08/01 11:57:17;;;;;;;;;11.75;11.50;;;;;33.93;38.78;100405.34;146607;632;45042;-75
2022/08/01 12:00:30;;;;;;;;;13.75;13.50;;;;;33.94;39.29;100412.47;146609;581;46021;-79
2022/08/01 12:03:35;;;;;;;;;17.00;16.00;;;;;33.83;38.33;100413.94;146605;563;46921;-75
2022/08/01 12:06:44;;;;;;;;;13.25;11.75;;;;;32.92;39.40;100254.44;146608;615;46020;-74
2022/08/01 12:09:42;;;;;;;;;14.75;12.75;;;;;33.72;36.45;100409.97;146607;580;46012;-77
2022/08/01 12:12:49;;;;;;;;;16.00;15.25;;;;;33.63;38.63;100401.50;146608;631;47012;-74
2022/08/01 12:15:56;;;;;;;;;14.25;14.00;;;;;33.53;39.34;100407.34;146607;587;46016;-76
2022/08/01 12:18:53;;;;;;;;;17.00;16.25;;;;;33.46;38.37;100400.50;146611;584;45020;-75
2022/08/01 12:22:09;;;;;;;;;16.00;15.50;;;;;33.43;38.26;100397.97;146607;605;46016;-76
2022/08/01 12:25:14;;;;;;;;;13.75;13.75;;;;;33.41;40.03;100381.03;146610;563;46010;-76
2022/08/01 12:28:17;;;;;;;;;17.75;16.25;;;;;33.46;39.40;100395.12;146607;593;46016;-75
2022/08/01 12:31:15;;;;;;;;;15.25;14.00;;;;;33.50;39.98;100385.97;146608;608;46021;-77
2022/08/01 12:34:39;;;;;;;;;;;;;;;;;;;;;
2022/08/01 12:38:11;;;;;;;;;14.25;13.75;;;;;33.07;38.46;100301.19;146604;592;48021;-75
2022/08/01 12:41:15;;;;;;;;;16.25;14.50;;;;;33.54;38.91;100381.31;146606;589;46016;-73
2022/08/01 12:44:26;;;;;;;;;18.50;16.75;;;;;33.51;39.35;100387.72;146610;738;46010;-75
2022/08/01 12:47:25;;;;;;;;;16.75;16.75;;;;;33.49;38.83;100391.38;146607;571;46014;-73
2022/08/01 12:50:24;;;;;;;;;17.00;15.75;;;;;33.49;39.05;100384.22;146609;566;46020;-74
2022/08/01 12:53:51;;;;;;;;;17.00;16.75;;;;;33.43;38.28;100383.63;146606;600;46017;-75
2022/08/01 12:57:09;;;;;;;;;14.75;14.25;;;;;33.38;38.88;100383.00;146608;571;46020;-74
2022/08/01 13:00:30;;;;;;;;;15.00;15.00;;;;;33.31;39.07;100377.91;146609;573;46013;-73
2022/08/01 13:03:27;;;;;;;;;17.25;15.50;;;;;33.28;38.56;100371.84;146609;682;46020;-75
2022/08/01 13:06:35;;;;;;;;;12.50;11.75;;;;;32.78;38.97;100290.03;146608;564;46017;-73
2022/08/01 13:09:32;;;;;;;;;15.50;14.75;;;;;33.20;38.65;100374.00;146608;579;47010;-75
2022/08/01 13:12:27;;;;;;;;;11.50;11.00;;;;;33.20;39.14;100374.00;146608;575;46012;-72
2022/08/01 13:15:31;;;;;;;;;11.75;11.00;;;;;33.22;38.13;100374.81;146608;580;46010;-74
2022/08/01 13:19:08;;;;;;;;;13.50;13.00;;;;;32.34;39.19;100208.91;146607;569;46016;-72
2022/08/01 13:22:13;;;;;;;;;18.75;16.00;;;;;33.21;39.70;100365.00;146608;574;46011;-75
2022/08/01 13:25:55;;;;;;;;;15.00;15.00;;;;;32.68;39.67;100278.00;146608;577;46012;-73
2022/08/01 13:29:12;;;;;;;;;13.25;13.25;;;;;32.11;39.46;100172.41;146608;576;46021;-74
2022/08/01 13:32:37;;;;;;;;;;;;;;;;;;;;;
2022/08/01 13:35:41;;;;;;;;;16.75;15.25;;;;;33.23;37.93;100361.28;146611;632;46010;-78
2022/08/01 13:42:20;;;;;;;;;15.00;14.25;;;;;33.31;38.60;100360.94;146609;630;46012;-75
2022/08/01 13:45:17;;;;;;;;;16.25;15.25;;;;;33.33;36.54;100359.03;146609;564;46012;-71
2022/08/01 13:48:34;;;;;;;;;14.50;13.25;;;;;32.93;38.12;100288.44;146609;592;46010;-73
2022/08/01 13:51:36;;;;;;;;;11.00;11.00;;;;;33.31;36.16;100347.50;146604;587;46038;-73
2022/08/01 13:54:34;;;;;;;;;11.75;11.75;;;;;33.33;36.50;100340.22;146611;571;46010;-73
2022/08/01 13:57:44;;;;;;;;;13.75;13.50;;;;;33.35;36.96;100347.25;146607;607;45017;-73
2022/08/01 14:00:51;;;;;;;;;13.75;13.00;;;;;33.38;36.88;100338.19;146610;635;46029;-74
2022/08/01 14:03:53;;;;;;;;;13.25;12.25;;;;;33.01;34.89;100275.50;146607;601;46012;-75
2022/08/01 14:06:51;;;;;;;;;14.75;14.75;;;;;33.46;36.36;100341.38;146609;620;46020;-73
2022/08/01 14:09:51;;;;;;;;;12.50;12.50;;;;;33.47;36.39;100345.78;146607;569;46012;-73
2022/08/01 14:12:56;;;;;;;;;14.25;13.00;;;;;33.44;35.73;100340.56;146608;602;46021;-73
2022/08/01 14:15:54;;;;;;;;;13.00;12.50;;;;;33.38;36.11;100338.19;146607;632;46012;-76
2022/08/01 14:18:33;;;;;;;;;9.75;8.50;;;;;33.33;35.06;100334.84;146611;621;45020;-73